Time;durP1;ratioP1;P1;durP2;ratioP2;P2;SDS_P1;SDS_P2;PMS_P1;PMS_P2;Temp;Humidity;BMP_temperature;BMP_pressure;BME280_temperature;BME280_humidity;BME280_pressure;Samples;Min_cycle;Max_cycle;Signal;HPM_P1;HPM_P2
2021/08/22 00:01:27;;;;;;;7.00;5.87;;;19.00;89.00;;;;;;5019846;28;20443;-69
2021/08/22 00:03:54;;;;;;;8.13;6.40;;;19.00;88.60;;;;;;5012501;28;20442;-72
2021/08/22 00:06:21;;;;;;;6.93;6.20;;;19.00;88.60;;;;;;5030766;28;20470;-69
2021/08/22 00:08:48;;;;;;;8.10;6.50;;;19.00;88.60;;;;;;5032228;28;20441;-68
2021/08/22 00:11:15;;;;;;;6.63;5.90;;;18.90;88.60;;;;;;5026378;28;20473;-69
2021/08/22 00:13:44;;;;;;;9.90;6.80;;;18.80;89.00;;;;;;5032217;28;20438;-70
2021/08/22 00:16:11;;;;;;;7.73;5.30;;;18.80;89.30;;;;;;5020473;28;20924;-69
2021/08/22 00:18:38;;;;;;;7.50;5.70;;;18.90;89.10;;;;;;5032010;28;20450;-69
2021/08/22 00:21:05;;;;;;;7.43;6.23;;;18.90;89.20;;;;;;5015732;28;20486;-69
2021/08/22 00:23:32;;;;;;;6.53;5.47;;;18.80;88.80;;;;;;5012483;28;20785;-69
2021/08/22 00:26:01;;;;;;;9.70;7.00;;;18.80;88.90;;;;;;5022288;28;20442;-69
2021/08/22 00:28:28;;;;;;;7.20;6.30;;;18.80;90.00;;;;;;5014372;28;20446;-69
2021/08/22 00:30:57;;;;;;;27.63;18.53;;;18.80;89.20;;;;;;5031582;28;20477;-69
2021/08/22 00:33:24;;;;;;;147.90;82.07;;;18.80;88.90;;;;;;5030020;28;20438;-69
2021/08/22 00:35:51;;;;;;;45.20;27.43;;;18.90;89.30;;;;;;5012261;28;20434;-69
2021/08/22 00:38:19;;;;;;;16.20;10.87;;;18.90;89.30;;;;;;5011958;28;20441;-70
2021/08/22 00:40:48;;;;;;;10.67;8.20;;;18.90;89.00;;;;;;5031452;28;20963;-72
2021/08/22 00:43:16;;;;;;;7.93;6.73;;;18.90;89.00;;;;;;5012200;28;20446;-69
2021/08/22 00:45:43;;;;;;;10.67;6.00;;;18.90;88.90;;;;;;5012205;28;20439;-69
2021/08/22 00:48:12;;;;;;;12.30;6.27;;;18.90;88.70;;;;;;5012062;28;20508;-68
2021/08/22 00:50:40;;;;;;;7.83;5.40;;;18.90;88.40;;;;;;5031711;28;20444;-69
2021/08/22 00:53:07;;;;;;;9.07;6.40;;;18.90;88.80;;;;;;5013771;28;20435;-69
2021/08/22 00:55:35;;;;;;;8.20;6.73;;;18.90;89.00;;;;;;5012037;28;20533;-69
2021/08/22 00:58:02;;;;;;;8.47;5.87;;;18.80;89.00;;;;;;5027705;28;20438;-69
2021/08/22 01:00:29;;;;;;;8.07;6.67;;;18.80;89.40;;;;;;5031667;28;20893;-68
2021/08/22 01:03:07;;;;;;;10.03;6.27;;;18.70;89.70;;;;;;5014537;28;20827;-69
2021/08/22 01:05:42;;;;;;;9.23;7.33;;;18.60;89.70;;;;;;5011883;28;20529;-70
2021/08/22 01:08:16;;;;;;;8.70;6.60;;;18.60;89.60;;;;;;5012283;28;20438;-68
2021/08/22 01:10:46;;;;;;;6.77;5.27;;;18.60;89.80;;;;;;5029141;28;20920;-70
2021/08/22 01:13:20;;;;;;;10.70;6.80;;;18.60;89.80;;;;;;5031606;28;20477;-69
2021/08/22 01:15:54;;;;;;;7.47;5.83;;;18.60;89.60;;;;;;5023822;28;20504;-70
2021/08/22 01:18:27;;;;;;;14.93;6.63;;;18.50;89.40;;;;;;5028209;28;20469;-69
2021/08/22 01:21:07;;;;;;;7.73;6.10;;;18.40;90.00;;;;;;5029555;28;21017;-69
2021/08/22 01:23:36;;;;;;;7.80;5.90;;;18.30;90.30;;;;;;5029854;28;20484;-69
2021/08/22 01:26:06;;;;;;;12.43;6.50;;;18.30;90.40;;;;;;5029706;28;20445;-71
2021/08/22 01:28:34;;;;;;;8.17;6.70;;;18.30;90.60;;;;;;5017247;28;20942;-70
2021/08/22 01:31:07;;;;;;;9.33;6.47;;;18.30;90.70;;;;;;5033792;28;20473;-70
2021/08/22 01:33:38;;;;;;;10.07;7.67;;;18.30;90.60;;;;;;5033660;28;20446;-73
2021/08/22 01:36:14;;;;;;;7.60;6.23;;;18.20;90.60;;;;;;5035391;28;20908;-70
2021/08/22 01:38:43;;;;;;;9.47;7.57;;;18.20;90.70;;;;;;5030776;28;20430;-70
2021/08/22 01:41:11;;;;;;;6.77;5.67;;;18.20;90.70;;;;;;5015089;28;20486;-70
2021/08/22 01:43:39;;;;;;;9.93;5.90;;;18.20;90.70;;;;;;5018018;28;20442;-68
2021/08/22 01:46:07;;;;;;;9.33;5.30;;;18.20;90.90;;;;;;5035139;28;20437;-68
2021/08/22 01:48:39;;;;;;;6.03;5.10;;;18.20;91.00;;;;;;5032398;28;20544;-69
2021/08/22 01:51:07;;;;;;;6.70;5.70;;;18.20;91.10;;;;;;5032142;28;20449;-68
2021/08/22 01:53:36;;;;;;;8.00;5.70;;;18.30;91.20;;;;;;5019837;28;20489;-69
2021/08/22 01:56:03;;;;;;;7.47;4.97;;;18.30;91.30;;;;;;5014890;28;20501;-69
2021/08/22 01:58:31;;;;;;;9.00;5.73;;;18.40;91.30;;;;;;5028048;28;20438;-69
2021/08/22 02:00:58;;;;;;;7.23;5.33;;;18.30;91.20;;;;;;5034441;28;20539;-68
2021/08/22 02:03:32;;;;;;;6.53;4.90;;;18.30;91.30;;;;;;5021607;28;20508;-70
2021/08/22 02:06:11;;;;;;;7.77;5.33;;;18.40;91.80;;;;;;5014827;28;20526;-69
2021/08/22 02:08:41;;;;;;;9.33;6.07;;;18.40;91.50;;;;;;5014754;28;20928;-69
2021/08/22 02:11:15;;;;;;;6.53;4.93;;;18.40;91.50;;;;;;5014420;28;20533;-69
2021/08/22 02:13:44;;;;;;;5.30;4.23;;;18.40;91.50;;;;;;5028784;28;20465;-69
2021/08/22 02:16:16;;;;;;;8.60;5.37;;;18.40;91.80;;;;;;5027740;28;20450;-69
2021/08/22 02:18:44;;;;;;;9.67;5.73;;;18.40;91.50;;;;;;5014448;28;20443;-69
2021/08/22 02:21:14;;;;;;;7.80;4.87;;;18.40;91.40;;;;;;5019934;28;20967;-69
2021/08/22 02:23:42;;;;;;;8.40;5.50;;;18.30;91.40;;;;;;5019813;28;20431;-68
2021/08/22 02:26:10;;;;;;;8.93;6.20;;;18.30;91.40;;;;;;5018117;28;20437;-69
2021/08/22 02:28:37;;;;;;;6.40;5.53;;;18.30;91.40;;;;;;5034223;28;20495;-69
2021/08/22 02:31:04;;;;;;;7.90;5.20;;;18.30;91.50;;;;;;5027739;28;20470;-69
2021/08/22 02:33:31;;;;;;;7.33;6.20;;;18.30;91.50;;;;;;5014221;28;20486;-69
2021/08/22 02:36:00;;;;;;;7.10;5.53;;;18.30;91.40;;;;;;5018279;28;20441;-69
2021/08/22 02:38:28;;;;;;;5.00;4.43;;;18.40;91.60;;;;;;5033884;28;20457;-69
2021/08/22 02:40:56;;;;;;;6.50;5.80;;;18.30;91.50;;;;;;5029298;28;20474;-69
2021/08/22 02:43:23;;;;;;;7.80;4.80;;;18.30;91.60;;;;;;5013433;28;20922;-68
2021/08/22 02:45:50;;;;;;;6.70;5.33;;;18.30;91.60;;;;;;5016675;28;20899;-68
2021/08/22 02:48:20;;;;;;;7.60;5.70;;;18.30;91.80;;;;;;5033501;28;20442;-71
2021/08/22 02:50:47;;;;;;;6.07;5.33;;;18.30;91.90;;;;;;5031010;28;20445;-68
2021/08/22 02:53:14;;;;;;;5.80;5.20;;;18.30;91.80;;;;;;5013748;28;20452;-68
2021/08/22 02:55:43;;;;;;;6.30;5.20;;;18.30;91.70;;;;;;5014324;28;20441;-71
2021/08/22 02:58:10;;;;;;;11.30;5.17;;;18.40;91.60;;;;;;5013718;28;20439;-69
2021/08/22 03:00:38;;;;;;;6.57;5.10;;;18.30;91.10;;;;;;5015398;28;20486;-70
2021/08/22 03:03:05;;;;;;;7.60;5.70;;;18.30;91.10;;;;;;5033805;28;20433;-70
2021/08/22 03:05:33;;;;;;;8.60;5.90;;;18.30;91.30;;;;;;5031410;28;20521;-70
2021/08/22 03:08:00;;;;;;;9.47;5.80;;;18.30;91.50;;;;;;5013704;28;20442;-70
2021/08/22 03:10:28;;;;;;;6.93;5.60;;;18.30;91.60;;;;;;5013656;28;20438;-71
2021/08/22 03:12:57;;;;;;;7.50;6.30;;;18.30;91.60;;;;;;5033255;28;20457;-71
2021/08/22 03:15:25;;;;;;;7.40;5.30;;;18.30;91.70;;;;;;5020652;28;20806;-71
2021/08/22 03:17:53;;;;;;;5.60;4.77;;;18.30;91.70;;;;;;5032633;28;20446;-71
2021/08/22 03:20:20;;;;;;;6.50;4.73;;;18.20;92.00;;;;;;5032246;28;20516;-68
2021/08/22 03:22:48;;;;;;;6.77;4.53;;;18.30;92.40;;;;;;5033398;28;20488;-70
2021/08/22 03:25:15;;;;;;;6.93;4.47;;;18.30;92.90;;;;;;5023334;28;20446;-71
2021/08/22 03:27:43;;;;;;;7.33;4.93;;;18.40;93.80;;;;;;5030712;28;20442;-71
2021/08/22 03:30:13;;;;;;;4.53;3.50;;;18.30;94.60;;;;;;5021800;28;20459;-67
2021/08/22 03:32:40;;;;;;;6.90;3.40;;;18.40;94.90;;;;;;4993839;28;20444;-68
2021/08/22 03:35:08;;;;;;;5.90;2.90;;;18.40;94.90;;;;;;4994649;28;20958;-70
2021/08/22 03:37:36;;;;;;;5.60;3.10;;;18.30;94.80;;;;;;5010477;28;20439;-70
2021/08/22 03:40:04;;;;;;;3.53;2.60;;;18.30;95.10;;;;;;5003711;28;20467;-68
2021/08/22 03:42:31;;;;;;;4.90;3.13;;;18.30;95.30;;;;;;5007592;28;20450;-68
2021/08/22 03:44:58;;;;;;;6.20;2.63;;;18.40;95.40;;;;;;5004774;28;20498;-68
2021/08/22 03:47:28;;;;;;;7.73;3.23;;;18.40;95.30;;;;;;4993482;28;20443;-70
2021/08/22 03:49:55;;;;;;;4.63;2.93;;;18.40;95.40;;;;;;5000369;28;20443;-70
2021/08/22 03:52:23;;;;;;;6.47;3.03;;;18.40;95.70;;;;;;5000700;28;20490;-70
2021/08/22 03:54:50;;;;;;;3.60;2.70;;;18.30;95.40;;;;;;4999304;28;20957;-70
2021/08/22 03:57:17;;;;;;;3.50;2.60;;;18.30;95.50;;;;;;5013332;28;20950;-70
2021/08/22 03:59:45;;;;;;;6.73;2.90;;;18.20;95.50;;;;;;5008143;28;20530;-70
2021/08/22 04:02:12;;;;;;;5.67;3.03;;;18.20;95.90;;;;;;4994348;28;20470;-70
2021/08/22 04:04:41;;;;;;;3.10;2.10;;;18.20;96.10;;;;;;4996368;28;20435;-70
2021/08/22 04:07:10;;;;;;;9.30;2.90;;;18.20;95.80;;;;;;5013050;28;20439;-70
2021/08/22 04:09:38;;;;;;;4.77;2.70;;;18.10;96.00;;;;;;5010400;28;20973;-70
2021/08/22 04:12:06;;;;;;;8.43;2.70;;;18.00;96.60;;;;;;5005832;28;20461;-71
2021/08/22 04:14:34;;;;;;;6.67;3.30;;;17.90;96.60;;;;;;5011422;28;20449;-70
2021/08/22 04:17:01;;;;;;;5.10;2.50;;;17.90;96.20;;;;;;5010675;28;20455;-70
2021/08/22 04:19:29;;;;;;;6.17;3.10;;;17.90;96.60;;;;;;5012330;28;20435;-72
2021/08/22 04:21:59;;;;;;;8.13;3.30;;;17.80;96.70;;;;;;4993017;28;20487;-70
2021/08/22 04:24:26;;;;;;;7.60;3.50;;;17.80;96.70;;;;;;4993267;28;20926;-70
2021/08/22 04:26:53;;;;;;;7.13;3.10;;;17.80;96.90;;;;;;5012260;28;20497;-70
2021/08/22 04:29:23;;;;;;;4.30;2.87;;;17.90;97.20;;;;;;5006635;28;20517;-68
2021/08/22 04:31:51;;;;;;;5.83;3.20;;;17.90;97.40;;;;;;5017639;28;20545;-70
2021/08/22 04:34:18;;;;;;;5.03;3.17;;;17.90;97.50;;;;;;5031227;28;20476;-69
2021/08/22 04:36:46;;;;;;;5.03;2.83;;;18.00;97.80;;;;;;5032032;28;20450;-70
2021/08/22 04:39:15;;;;;;;4.83;3.23;;;18.00;97.90;;;;;;5031595;28;20438;-70
2021/08/22 04:41:44;;;;;;;6.30;3.80;;;18.00;97.80;;;;;;5029424;28;20477;-70
2021/08/22 04:44:12;;;;;;;6.27;3.73;;;18.00;97.80;;;;;;5030106;28;20473;-70
2021/08/22 04:46:39;;;;;;;4.77;3.00;;;18.00;97.50;;;;;;5030241;28;20437;-71
2021/08/22 04:49:07;;;;;;;4.57;3.23;;;18.00;97.70;;;;;;5030185;28;21001;-69
2021/08/22 04:51:35;;;;;;;4.60;3.20;;;18.10;97.90;;;;;;5028832;28;20437;-69
2021/08/22 04:54:07;;;;;;;5.47;3.27;;;18.00;97.70;;;;;;5030225;28;20448;-69
2021/08/22 04:56:39;;;;;;;7.23;3.50;;;18.10;97.80;;;;;;5030581;28;20441;-70
2021/08/22 04:59:06;;;;;;;5.37;3.23;;;18.10;97.60;;;;;;5029912;28;20515;-69
2021/08/22 05:01:33;;;;;;;5.43;3.37;;;18.10;97.70;;;;;;5030783;28;20489;-70
2021/08/22 05:04:00;;;;;;;3.83;2.80;;;18.20;97.80;;;;;;5027875;28;20438;-70
2021/08/22 05:06:27;;;;;;;4.97;3.23;;;18.20;97.80;;;;;;5033963;28;20441;-73
2021/08/22 05:08:54;;;;;;;6.30;3.40;;;18.30;97.80;;;;;;5031034;28;20446;-69
2021/08/22 05:11:21;;;;;;;5.93;3.43;;;18.30;97.70;;;;;;5030159;28;20434;-72
2021/08/22 05:13:50;;;;;;;5.73;4.10;;;18.30;97.70;;;;;;5033629;28;20441;-69
2021/08/22 05:16:17;;;;;;;19.03;7.83;;;18.30;97.50;;;;;;5034123;28;20548;-69
2021/08/22 05:18:45;;;;;;;37.90;15.53;;;18.30;97.50;;;;;;5034192;28;20495;-70
2021/08/22 05:21:12;;;;;;;35.73;14.33;;;18.30;97.60;;;;;;5032838;28;20513;-70
2021/08/22 05:23:46;;;;;;;28.87;10.40;;;18.40;97.70;;;;;;5031785;28;20434;-70
2021/08/22 05:26:14;;;;;;;8.73;4.57;;;18.40;97.70;;;;;;5033600;28;20452;-70
2021/08/22 05:28:41;;;;;;;6.17;3.53;;;18.40;97.60;;;;;;5032958;28;20441;-70
2021/08/22 05:31:09;;;;;;;7.67;4.20;;;18.40;97.60;;;;;;5030250;28;22154;-70
2021/08/22 05:33:37;;;;;;;4.83;3.47;;;18.40;97.60;;;;;;5022497;28;21036;-70
2021/08/22 05:36:20;;;;;;;10.50;4.77;;;18.40;97.60;;;;;;5013672;28;20434;-70
2021/08/22 05:38:48;;;;;;;11.50;6.00;;;18.40;97.70;;;;;;5012232;28;20443;-70
2021/08/22 05:41:15;;;;;;;10.57;4.77;;;18.40;97.70;;;;;;5013027;28;20514;-70
2021/08/22 05:43:42;;;;;;;12.47;4.87;;;18.50;97.70;;;;;;5012975;28;20489;-70
2021/08/22 05:46:12;;;;;;;14.33;4.83;;;18.50;97.80;;;;;;5015051;28;20505;-70
2021/08/22 05:48:40;;;;;;;6.23;3.73;;;18.60;97.50;;;;;;5014977;28;20505;-71
2021/08/22 05:51:07;;;;;;;6.20;3.60;;;18.60;97.10;;;;;;5013832;28;21007;-70
2021/08/22 05:53:35;;;;;;;8.87;4.83;;;18.50;97.50;;;;;;5014302;28;20477;-70
2021/08/22 05:56:02;;;;;;;4.57;3.20;;;18.50;97.90;;;;;;5024965;28;20438;-70
2021/08/22 05:58:30;;;;;;;6.73;4.53;;;18.50;98.00;;;;;;5021981;28;20980;-70
2021/08/22 06:00:57;;;;;;;7.20;4.30;;;18.50;98.00;;;;;;5014110;28;20488;-70
2021/08/22 06:03:25;;;;;;;6.40;4.17;;;18.60;97.90;;;;;;5008998;28;20434;-70
2021/08/22 06:05:53;;;;;;;6.23;4.37;;;18.50;98.00;;;;;;5014770;28;20450;-70
2021/08/22 06:08:20;;;;;;;6.00;3.60;;;18.60;97.70;;;;;;5011922;28;20470;-69
2021/08/22 06:10:48;;;;;;;6.60;3.80;;;18.60;97.90;;;;;;5014356;28;20454;-70
2021/08/22 06:13:15;;;;;;;5.37;3.33;;;18.60;98.00;;;;;;5019376;28;20445;-70
2021/08/22 06:15:42;;;;;;;4.83;3.60;;;18.70;97.40;;;;;;5032129;28;20442;-70
2021/08/22 06:18:09;;;;;;;5.17;3.23;;;18.60;97.60;;;;;;5023242;28;20798;-70
2021/08/22 06:20:38;;;;;;;4.97;3.40;;;18.60;97.80;;;;;;5014681;28;20820;-70
2021/08/22 06:23:05;;;;;;;4.87;3.97;;;18.70;97.80;;;;;;5013052;28;20446;-70
2021/08/22 06:25:32;;;;;;;6.17;3.83;;;18.70;97.70;;;;;;5012510;28;20450;-69
2021/08/22 06:28:00;;;;;;;7.53;3.53;;;18.80;98.10;;;;;;5011780;28;20435;-69
2021/08/22 06:30:34;;;;;;;5.43;3.63;;;18.90;98.00;;;;;;5013912;28;21410;-70
2021/08/22 06:33:01;;;;;;;5.10;3.10;;;18.90;97.80;;;;;;5012230;28;20460;-69
2021/08/22 06:35:28;;;;;;;5.33;3.50;;;19.00;98.30;;;;;;5011977;28;20446;-70
2021/08/22 06:37:57;;;;;;;5.10;3.27;;;19.10;98.30;;;;;;5012219;28;20438;-69
2021/08/22 06:40:25;;;;;;;5.70;3.40;;;19.20;98.10;;;;;;5012260;28;20850;-69
2021/08/22 06:42:52;;;;;;;4.37;2.77;;;19.30;98.00;;;;;;5011626;28;20493;-69
2021/08/22 06:45:19;;;;;;;5.67;3.80;;;19.40;97.80;;;;;;5012203;28;20485;-70
2021/08/22 06:47:47;;;;;;;5.77;2.73;;;19.60;97.90;;;;;;5011236;28;20797;-70
2021/08/22 06:50:14;;;;;;;5.00;3.17;;;19.80;97.70;;;;;;5012198;28;20948;-70
2021/08/22 06:52:42;;;;;;;4.70;2.80;;;19.90;97.50;;;;;;5010135;28;20489;-71
2021/08/22 06:55:11;;;;;;;4.60;2.30;;;20.00;97.40;;;;;;5008117;28;20439;-70
2021/08/22 06:57:41;;;;;;;4.43;3.00;;;20.10;96.20;;;;;;5008415;28;20447;-70
2021/08/22 07:00:09;;;;;;;3.77;2.63;;;20.20;96.40;;;;;;5012107;28;20439;-69
2021/08/22 07:02:37;;;;;;;4.07;2.80;;;20.20;95.70;;;;;;5007994;28;20486;-70
2021/08/22 07:05:06;;;;;;;4.23;3.30;;;20.20;94.80;;;;;;5012017;28;20780;-70
2021/08/22 07:07:33;;;;;;;4.97;2.80;;;20.10;94.80;;;;;;5008237;28;20800;-70
2021/08/22 07:10:00;;;;;;;3.80;2.50;;;20.00;94.60;;;;;;5011172;28;20439;-70
2021/08/22 07:12:28;;;;;;;4.40;2.70;;;19.90;94.20;;;;;;5007680;28;20776;-70
2021/08/22 07:14:55;;;;;;;3.13;2.10;;;19.80;94.20;;;;;;5010157;28;20447;-71
2021/08/22 07:17:22;;;;;;;3.70;2.40;;;19.80;94.60;;;;;;5011240;28;20443;-72
2021/08/22 07:19:49;;;;;;;5.13;3.10;;;19.70;94.60;;;;;;5007042;28;20514;-70
2021/08/22 07:22:16;;;;;;;4.60;2.73;;;19.60;94.60;;;;;;5008872;28;20483;-70
2021/08/22 07:24:44;;;;;;;3.67;2.27;;;19.50;94.90;;;;;;5011313;28;20961;-71
2021/08/22 07:27:11;;;;;;;3.80;2.60;;;19.50;95.10;;;;;;5010738;28;20441;-70
2021/08/22 07:29:40;;;;;;;3.20;1.90;;;19.40;95.40;;;;;;5010622;28;20483;-70
2021/08/22 07:32:08;;;;;;;5.27;2.93;;;19.50;95.70;;;;;;5025913;28;20465;-71
2021/08/22 07:34:35;;;;;;;4.93;2.73;;;19.50;95.70;;;;;;5031726;28;20434;-70
2021/08/22 07:37:02;;;;;;;4.70;3.23;;;19.40;95.60;;;;;;5028326;28;20442;-69
2021/08/22 07:39:29;;;;;;;3.37;2.20;;;19.30;96.30;;;;;;5027384;28;20845;-67
2021/08/22 07:41:56;;;;;;;3.23;2.00;;;19.30;96.10;;;;;;5031009;28;20477;-68
2021/08/22 07:44:24;;;;;;;3.93;2.60;;;19.40;96.20;;;;;;5031548;28;20491;-67
2021/08/22 07:46:52;;;;;;;5.93;3.50;;;19.30;96.30;;;;;;5029985;28;20519;-70
2021/08/22 07:49:20;;;;;;;5.03;3.30;;;19.30;96.50;;;;;;5027126;28;20951;-70
2021/08/22 07:51:48;;;;;;;3.93;2.50;;;19.50;96.20;;;;;;5028965;28;20446;-70
2021/08/22 07:54:19;;;;;;;3.73;2.80;;;19.50;96.40;;;;;;5031396;28;20453;-70
2021/08/22 07:56:47;;;;;;;3.60;2.30;;;19.80;96.90;;;;;;5030835;28;20434;-68
2021/08/22 07:59:16;;;;;;;4.60;3.30;;;20.20;96.50;;;;;;5031573;28;20512;-67
2021/08/22 08:01:43;;;;;;;7.50;2.80;;;20.30;95.20;;;;;;5031376;28;20539;-68
2021/08/22 08:04:12;;;;;;;3.57;2.63;;;20.60;95.20;;;;;;5031154;28;20442;-68
2021/08/22 08:06:39;;;;;;;4.47;2.27;;;21.00;95.20;;;;;;5027850;28;20492;-68
2021/08/22 08:09:09;;;;;;;4.70;2.57;;;21.30;93.40;;;;;;5031678;28;20442;-68
2021/08/22 08:11:36;;;;;;;2.97;2.20;;;21.40;93.60;;;;;;5031608;28;20491;-68
2021/08/22 08:14:03;;;;;;;6.67;2.77;;;21.70;93.20;;;;;;5031043;28;21317;-68
2021/08/22 08:16:30;;;;;;;5.67;2.80;;;21.90;91.80;;;;;;5031507;28;20473;-68
2021/08/22 08:19:02;;;;;;;3.57;2.40;;;21.70;91.30;;;;;;5030670;28;20537;-70
2021/08/22 08:21:32;;;;;;;3.70;2.53;;;21.60;91.90;;;;;;5030682;28;20513;-71
2021/08/22 08:23:59;;;;;;;4.60;2.20;;;21.50;91.10;;;;;;5027875;28;20847;-68
2021/08/22 08:26:39;;;;;;;3.10;2.10;;;21.30;91.00;;;;;;5027465;28;20913;-69
2021/08/22 08:29:06;;;;;;;3.80;2.10;;;21.10;91.50;;;;;;5028780;28;20437;-68
2021/08/22 08:31:35;;;;;;;3.70;2.10;;;21.10;91.60;;;;;;5029143;28;20867;-68
2021/08/22 08:34:02;;;;;;;4.60;3.17;;;21.00;91.70;;;;;;5029711;28;20842;-68
2021/08/22 08:36:34;;;;;;;5.73;3.07;;;20.90;92.10;;;;;;5012958;28;20469;-68
2021/08/22 08:39:04;;;;;;;4.47;2.37;;;20.90;92.30;;;;;;5011990;28;20489;-68
2021/08/22 08:41:31;;;;;;;5.03;2.53;;;21.00;92.50;;;;;;5028806;28;20485;-68
2021/08/22 08:43:58;;;;;;;3.40;2.57;;;21.10;92.80;;;;;;5024323;28;20533;-68
2021/08/22 08:46:26;;;;;;;3.30;2.20;;;21.10;92.80;;;;;;5015674;28;20434;-69
2021/08/22 08:48:55;;;;;;;5.30;2.63;;;21.10;92.70;;;;;;5017079;28;20433;-68
2021/08/22 08:51:39;;;;;;;4.50;2.50;;;21.10;92.90;;;;;;5016997;28;20532;-68
2021/08/22 08:54:07;;;;;;;3.40;2.20;;;21.20;93.10;;;;;;5003057;28;20470;-68
2021/08/22 08:56:34;;;;;;;4.23;2.83;;;21.20;93.00;;;;;;5015213;28;20451;-68
2021/08/22 08:59:01;;;;;;;3.73;1.97;;;21.30;92.90;;;;;;5016010;28;20455;-68
2021/08/22 09:01:28;;;;;;;4.47;2.40;;;21.40;92.60;;;;;;5000638;28;20918;-68
2021/08/22 09:04:13;;;;;;;7.53;2.50;;;21.50;92.60;;;;;;4997085;28;20447;-68
2021/08/22 09:07:18;;;;;;;3.80;2.87;;;21.70;92.70;;;;;;5006045;28;20438;-68
2021/08/22 09:10:22;;;;;;;4.67;2.80;;;21.80;93.20;;;;;;5013038;28;20827;-68
2021/08/22 09:13:27;;;;;;;5.30;2.97;;;22.10;91.50;;;;;;5009210;28;20434;-71
2021/08/22 09:16:36;;;;;;;3.50;2.20;;;22.50;92.00;;;;;;5004690;28;20474;-70
2021/08/22 09:19:33;;;;;;;5.30;3.73;;;22.90;91.90;;;;;;5012843;28;20593;-68
2021/08/22 09:22:49;;;;;;;4.97;3.33;;;23.40;91.10;;;;;;5011702;28;21213;-68
2021/08/22 09:25:55;;;;;;;3.70;2.20;;;23.60;86.40;;;;;;5013276;28;20967;-68
2021/08/22 09:29:07;;;;;;;3.63;2.37;;;23.90;83.20;;;;;;5008168;28;20445;-68
2021/08/22 09:32:26;;;;;;;3.50;2.43;;;23.90;82.60;;;;;;5021283;28;20844;-68
2021/08/22 09:35:38;;;;;;;3.60;2.50;;;24.00;83.60;;;;;;5031431;28;20440;-68
2021/08/22 09:38:41;;;;;;;4.43;2.33;;;24.30;86.20;;;;;;5032191;28;20429;-68
2021/08/22 09:41:45;;;;;;;2.97;2.10;;;24.40;81.00;;;;;;5033056;28;20434;-68
2021/08/22 09:45:03;;;;;;;3.07;2.10;;;24.50;79.80;;;;;;5032834;28;20438;-68
2021/08/22 09:48:19;;;;;;;3.70;2.60;;;24.70;79.20;;;;;;5031642;28;20439;-68
2021/08/22 09:51:34;;;;;;;3.47;2.33;;;25.00;78.30;;;;;;4989008;28;20472;-68
2021/08/22 09:54:44;;;;;;;4.30;2.37;;;25.20;78.40;;;;;;5031017;28;20436;-69
2021/08/22 09:57:48;;;;;;;2.80;2.10;;;25.60;79.10;;;;;;5032563;28;20439;-68
2021/08/22 10:01:01;;;;;;;4.30;3.10;;;25.90;76.00;;;;;;5032247;28;20493;-69
2021/08/22 10:04:16;;;;;;;4.90;2.53;;;26.10;75.40;;;;;;5032606;28;20481;-69
2021/08/22 10:07:08;;;;;;;3.90;2.37;;;26.30;73.70;;;;;;4952129;29;21024;-68
2021/08/22 10:09:40;;;;;;;5.80;2.87;;;26.40;73.20;;;;;;5024285;28;20445;-70
2021/08/22 10:12:08;;;;;;;3.13;2.30;;;26.40;74.20;;;;;;5028037;28;20448;-68
2021/08/22 10:14:38;;;;;;;4.27;2.53;;;26.30;70.30;;;;;;5031453;28;20811;-68
2021/08/22 10:17:06;;;;;;;3.67;2.37;;;26.00;69.50;;;;;;5032378;28;20472;-68
2021/08/22 10:19:33;;;;;;;3.63;2.60;;;25.70;71.10;;;;;;5032326;28;20440;-68
2021/08/22 10:22:13;;;;;;;2.97;2.37;;;25.60;74.30;;;;;;5032593;28;20469;-68
2021/08/22 10:24:45;;;;;;;3.43;2.40;;;25.70;76.10;;;;;;5015286;28;20476;-68
2021/08/22 10:27:12;;;;;;;4.23;2.90;;;26.00;76.00;;;;;;5029963;28;20520;-70
2021/08/22 10:30:10;;;;;;;4.57;2.80;;;26.20;73.50;;;;;;5014083;28;20448;-68
2021/08/22 10:33:09;;;;;;;3.87;2.40;;;26.40;72.80;;;;;;5017781;28;20442;-70
2021/08/22 10:35:36;;;;;;;3.73;2.57;;;26.50;68.40;;;;;;5031833;28;20440;-68
2021/08/22 10:38:32;;;;;;;5.80;3.23;;;26.60;63.70;;;;;;5021861;28;20501;-68
2021/08/22 10:40:59;;;;;;;4.07;2.80;;;26.40;65.90;;;;;;5025707;28;20452;-68
2021/08/22 10:43:38;;;;;;;3.00;2.30;;;26.30;67.30;;;;;;5026663;28;20474;-68
2021/08/22 10:46:06;;;;;;;4.37;2.80;;;26.10;66.30;;;;;;5013412;28;20446;-68
2021/08/22 10:48:50;;;;;;;6.47;4.07;;;26.00;68.70;;;;;;5013678;28;20446;-68
2021/08/22 10:51:20;;;;;;;4.67;2.90;;;25.90;69.40;;;;;;5012831;28;20442;-69
2021/08/22 10:53:51;;;;;;;3.53;2.43;;;25.90;69.30;;;;;;5027943;28;20445;-68
2021/08/22 10:56:39;;;;;;;3.60;2.63;;;25.90;70.60;;;;;;5032632;28;20441;-69
2021/08/22 10:59:08;;;;;;;3.53;2.57;;;25.90;69.40;;;;;;5025449;28;20445;-69
2021/08/22 11:01:37;;;;;;;3.53;2.50;;;25.90;70.60;;;;;;5019310;28;20439;-68
2021/08/22 11:04:06;;;;;;;3.63;2.50;;;25.90;69.50;;;;;;5012575;28;20995;-68
2021/08/22 11:06:33;;;;;;;3.07;2.60;;;25.90;70.20;;;;;;5024518;28;20468;-68
2021/08/22 11:09:02;;;;;;;3.87;2.70;;;26.00;71.10;;;;;;5030760;28;20504;-68
2021/08/22 11:11:29;;;;;;;6.00;4.50;;;26.20;69.50;;;;;;5032024;28;20499;-68
2021/08/22 11:13:57;;;;;;;4.83;2.60;;;26.20;69.50;;;;;;5022947;28;20508;-68
2021/08/22 11:16:40;;;;;;;4.13;2.90;;;26.10;69.90;;;;;;5012409;28;20474;-68
2021/08/22 11:19:08;;;;;;;3.70;2.43;;;26.10;70.30;;;;;;5017987;28;20835;-67
2021/08/22 11:21:35;;;;;;;3.60;2.53;;;25.90;71.10;;;;;;5030682;28;20437;-68
2021/08/22 11:24:07;;;;;;;3.63;2.50;;;25.70;71.90;;;;;;5031925;28;20502;-68
2021/08/22 11:26:37;;;;;;;4.60;3.40;;;25.70;71.80;;;;;;5029507;28;20451;-68
2021/08/22 11:29:05;;;;;;;4.40;3.30;;;25.50;72.40;;;;;;5029198;28;20438;-72
2021/08/22 11:31:33;;;;;;;5.10;3.07;;;25.40;71.60;;;;;;5027777;28;20507;-68
2021/08/22 11:34:11;;;;;;;4.70;3.57;;;25.20;73.90;;;;;;5031666;28;20442;-68
2021/08/22 11:36:38;;;;;;;4.27;3.13;;;25.00;75.50;;;;;;5030708;28;20443;-69
2021/08/22 11:39:16;;;;;;;3.77;2.83;;;24.80;75.70;;;;;;5032871;28;20537;-67
2021/08/22 11:41:48;;;;;;;4.90;2.90;;;24.60;75.80;;;;;;5030784;28;20443;-68
2021/08/22 11:44:22;;;;;;;3.60;2.60;;;24.50;76.90;;;;;;5032252;28;20565;-68
2021/08/22 11:46:52;;;;;;;5.03;3.40;;;24.30;78.50;;;;;;5032063;28;20625;-68
2021/08/22 11:49:19;;;;;;;4.67;2.77;;;24.20;79.20;;;;;;5031910;28;20446;-75
2021/08/22 11:51:51;;;;;;;4.77;3.10;;;24.10;78.60;;;;;;5030161;28;20980;-67
2021/08/22 11:54:20;;;;;;;4.67;3.00;;;23.90;78.50;;;;;;5032063;28;20446;-68
2021/08/22 11:56:48;;;;;;;4.20;3.00;;;23.80;78.80;;;;;;5028903;28;20519;-68
2021/08/22 11:59:25;;;;;;;4.17;2.87;;;23.70;79.60;;;;;;5026302;28;20525;-68
2021/08/22 12:02:17;;;;;;;4.67;2.73;;;23.70;81.10;;;;;;5030881;28;20541;-67
2021/08/22 12:04:44;;;;;;;4.50;2.83;;;23.70;81.30;;;;;;5031597;28;20775;-70
2021/08/22 12:07:11;;;;;;;3.60;2.60;;;23.60;81.50;;;;;;5030837;28;20442;-68
2021/08/22 12:09:50;;;;;;;4.50;2.43;;;23.60;83.00;;;;;;5029812;28;20529;-68
2021/08/22 12:12:21;;;;;;;5.83;3.60;;;23.50;83.60;;;;;;5031151;28;20472;-68
2021/08/22 12:14:48;;;;;;;5.53;2.83;;;23.40;83.70;;;;;;5030252;28;20525;-68
2021/08/22 12:17:26;;;;;;;4.37;2.70;;;23.50;84.90;;;;;;5026680;28;20533;-68
2021/08/22 12:19:53;;;;;;;4.20;2.83;;;23.70;85.60;;;;;;5030834;28;20449;-67
2021/08/22 12:22:28;;;;;;;3.63;2.70;;;24.20;86.40;;;;;;5030695;28;20492;-68
2021/08/22 12:24:57;;;;;;;3.60;2.63;;;24.70;84.30;;;;;;5025684;28;20857;-68
2021/08/22 12:27:29;;;;;;;4.30;2.83;;;25.10;79.80;;;;;;5028862;28;20497;-68
2021/08/22 12:30:08;;;;;;;4.70;2.87;;;25.40;79.10;;;;;;5024603;28;20444;-70
2021/08/22 12:32:38;;;;;;;4.40;2.90;;;25.70;77.50;;;;;;5026296;28;20432;-69
2021/08/22 12:35:07;;;;;;;3.90;3.10;;;26.00;78.00;;;;;;5023560;28;20876;-68
2021/08/22 12:37:34;;;;;;;5.17;3.20;;;26.20;77.20;;;;;;5029567;28;20490;-68
2021/08/22 12:40:06;;;;;;;3.73;2.60;;;26.50;76.00;;;;;;5030412;28;20495;-68
2021/08/22 12:42:34;;;;;;;4.40;3.33;;;26.90;76.60;;;;;;5026507;28;20843;-68
2021/08/22 12:45:01;;;;;;;5.23;3.70;;;27.20;73.20;;;;;;5027135;28;20442;-68
2021/08/22 12:47:28;;;;;;;5.80;3.73;;;27.40;72.00;;;;;;5025015;28;20820;-72
2021/08/22 12:49:56;;;;;;;4.60;3.03;;;27.50;70.00;;;;;;5029446;28;20916;-67
2021/08/22 12:52:26;;;;;;;3.77;2.80;;;27.50;71.80;;;;;;5029225;28;20516;-68
2021/08/22 12:54:54;;;;;;;3.70;3.10;;;27.70;69.90;;;;;;5030022;28;20450;-68
2021/08/22 12:57:23;;;;;;;3.90;3.30;;;27.90;70.50;;;;;;5029101;28;20446;-68
2021/08/22 12:59:50;;;;;;;3.43;3.10;;;28.20;68.40;;;;;;5029566;28;20489;-68
2021/08/22 13:02:17;;;;;;;4.50;3.23;;;28.20;65.40;;;;;;5027339;28;20429;-68
2021/08/22 13:04:44;;;;;;;3.87;2.97;;;28.40;64.10;;;;;;5027912;28;20513;-68
2021/08/22 13:07:17;;;;;;;4.03;3.03;;;28.40;61.60;;;;;;5028329;28;20528;-68
2021/08/22 13:09:44;;;;;;;4.10;3.07;;;28.50;62.30;;;;;;5029095;28;20442;-68